Time;durP1;ratioP1;P1;durP2;ratioP2;P2;SDS_P1;SDS_P2;PMS_P1;PMS_P2;Temp;Humidity;BMP_temperature;BMP_pressure;BME280_temperature;BME280_humidity;BME280_pressure;Samples;Min_cycle;Max_cycle;Signal;HPM_P1;HPM_P2
2023/11/06 00:00:28;;;;;;;9.80;6.57;;;;;22.30;98344.00;;;;2059927;28;20217;-54
2023/11/06 00:01:29;;;;;;;9.40;6.40;;;;;22.30;98350.00;;;;2060301;28;20260;-57
2023/11/06 00:02:29;;;;;;;8.60;6.27;;;;;22.20;98358.00;;;;2058726;28;20221;-58
2023/11/06 00:03:29;;;;;;;8.77;6.27;;;;;22.20;98345.00;;;;2069743;28;20277;-57
2023/11/06 00:04:31;;;;;;;8.90;6.57;;;;;22.20;98347.00;;;;2061583;28;21555;-61
2023/11/06 00:05:32;;;;;;;10.63;6.38;;;;;22.20;98347.00;;;;2068847;28;21014;-58
2023/11/06 00:06:32;;;;;;;10.43;6.63;;;;;22.20;98349.00;;;;2068879;28;20214;-57
2023/11/06 00:07:32;;;;;;;8.47;5.87;;;;;22.20;98345.00;;;;2051618;28;20215;-54
2023/11/06 00:08:33;;;;;;;9.73;5.57;;;;;22.20;98360.00;;;;2062172;28;20245;-56
2023/11/06 00:09:33;;;;;;;9.87;5.90;;;;;22.20;98351.00;;;;2059226;28;20920;-56
2023/11/06 00:10:34;;;;;;;8.97;5.83;;;;;22.20;98348.00;;;;2069230;28;20623;-57
2023/11/06 00:11:34;;;;;;;8.00;5.30;;;;;22.20;98351.00;;;;2069182;28;20269;-57
2023/11/06 00:12:36;;;;;;;9.27;5.60;;;;;22.20;98351.00;;;;2050051;28;20338;-57
2023/11/06 00:13:36;;;;;;;7.68;5.57;;;;;22.20;98353.00;;;;2058913;28;20226;-56
2023/11/06 00:14:36;;;;;;;8.33;4.90;;;;;22.20;98290.00;;;;2062328;28;21244;-57
2023/11/06 00:15:37;;;;;;;9.53;5.50;;;;;22.20;98298.00;;;;2062863;28;20562;-59
2023/11/06 00:16:38;;;;;;;9.30;5.28;;;;;22.20;98357.00;;;;2057187;28;20210;-58
2023/11/06 00:17:38;;;;;;;6.90;4.80;;;;;22.20;98355.00;;;;2051044;28;20220;-59
2023/11/06 00:18:38;;;;;;;8.50;4.60;;;;;22.20;98351.00;;;;2054206;28;20223;-60
2023/11/06 00:19:39;;;;;;;5.97;4.50;;;;;22.20;98360.00;;;;2060074;28;20218;-59
2023/11/06 00:20:39;;;;;;;11.47;5.80;;;;;22.20;98353.00;;;;2058137;28;20318;-56
2023/11/06 00:21:40;;;;;;;8.03;4.43;;;;;22.20;98355.00;;;;2054911;28;20244;-57
2023/11/06 00:22:41;;;;;;;5.05;3.92;;;;;22.10;98356.00;;;;2054987;28;20219;-60
2023/11/06 00:23:41;;;;;;;10.47;4.70;;;;;22.10;98354.00;;;;2061323;28;20556;-59
2023/11/06 00:24:41;;;;;;;7.67;4.63;;;;;22.10;98361.00;;;;2061494;28;20207;-57
2023/11/06 00:25:42;;;;;;;7.30;4.50;;;;;22.10;98363.00;;;;2057677;28;20238;-59
2023/11/06 00:26:44;;;;;;;5.30;3.97;;;;;22.10;98361.00;;;;2060793;28;20290;-57
2023/11/06 00:27:45;;;;;;;6.97;4.35;;;;;22.10;98363.00;;;;2050784;28;20715;-56
2023/11/06 00:28:45;;;;;;;5.30;3.97;;;;;22.10;98360.00;;;;2055101;28;20215;-59
2023/11/06 00:29:46;;;;;;;5.70;3.90;;;;;22.10;98361.00;;;;2062007;28;20211;-59
2023/11/06 00:30:46;;;;;;;4.93;3.27;;;;;22.10;98360.00;;;;2057387;28;20458;-59
2023/11/06 00:31:46;;;;;;;6.47;4.00;;;;;22.10;98363.00;;;;2065128;28;20218;-58
2023/11/06 00:32:47;;;;;;;6.60;3.67;;;;;22.10;98365.00;;;;2051332;28;20234;-58
2023/11/06 00:33:48;;;;;;;6.13;3.77;;;;;22.10;98366.00;;;;2061135;28;20230;-60
2023/11/06 00:34:48;;;;;;;6.25;4.15;;;;;22.10;98360.00;;;;2065054;28;20579;-59
2023/11/06 00:35:49;;;;;;;6.00;3.80;;;;;22.10;98366.00;;;;2061695;28;20293;-58
2023/11/06 00:36:49;;;;;;;6.23;3.67;;;;;22.10;98369.00;;;;2055562;28;20215;-57
2023/11/06 00:37:50;;;;;;;4.80;3.10;;;;;22.00;98374.00;;;;2047597;28;20235;-58
2023/11/06 00:38:50;;;;;;;5.50;3.80;;;;;22.10;98361.00;;;;2067405;28;20297;-55
2023/11/06 00:39:50;;;;;;;6.63;4.00;;;;;22.10;98358.00;;;;2063991;28;20742;-56
2023/11/06 00:40:51;;;;;;;4.73;3.50;;;;;22.10;98368.00;;;;2061153;28;20675;-57
2023/11/06 00:41:51;;;;;;;5.47;3.30;;;;;22.10;98371.00;;;;2056195;28;20216;-56
2023/11/06 00:42:52;;;;;;;5.73;2.90;;;;;22.10;98374.00;;;;2052488;28;20225;-57
2023/11/06 00:43:52;;;;;;;5.67;3.13;;;;;22.00;98367.00;;;;2068649;28;20242;-57
2023/11/06 00:44:53;;;;;;;5.53;3.07;;;;;22.00;98365.00;;;;2065492;28;20230;-55
2023/11/06 00:45:53;;;;;;;5.67;3.00;;;;;22.00;98371.00;;;;2067676;28;20225;-56
2023/11/06 00:46:54;;;;;;;5.40;3.13;;;;;22.00;98373.00;;;;2055479;28;20489;-55
2023/11/06 00:47:54;;;;;;;3.80;2.67;;;;;22.00;98358.00;;;;2048356;28;20210;-57
2023/11/06 00:48:54;;;;;;;5.40;2.83;;;;;22.00;98360.00;;;;2067130;28;20702;-58
2023/11/06 00:49:55;;;;;;;4.43;2.60;;;;;22.00;98357.00;;;;2060520;28;20229;-54
2023/11/06 00:50:55;;;;;;;5.50;2.80;;;;;22.00;98371.00;;;;2057284;28;20223;-54
2023/11/06 00:51:55;;;;;;;5.53;2.80;;;;;22.00;98409.00;;;;2053159;28;20365;-58
2023/11/06 00:52:58;;;;;;;4.47;2.50;;;;;22.00;98377.00;;;;2052615;28;21178;-54
2023/11/06 00:53:58;;;;;;;4.03;2.88;;;;;22.00;98386.00;;;;2069019;28;20226;-55
2023/11/06 00:54:58;;;;;;;4.10;2.57;;;;;22.00;98378.00;;;;2067424;28;20628;-57
2023/11/06 00:55:59;;;;;;;4.37;2.43;;;;;22.00;98383.00;;;;2063135;28;20257;-55
2023/11/06 00:57:00;;;;;;;4.80;2.43;;;;;22.00;98377.00;;;;2053190;28;20215;-54
2023/11/06 00:58:00;;;;;;;6.77;2.63;;;;;22.00;98382.00;;;;2045999;28;20235;-57
2023/11/06 00:59:02;;;;;;;4.30;2.30;;;;;22.00;98379.00;;;;2059880;28;20222;-60
2023/11/06 01:00:04;;;;;;;4.80;2.15;;;;;22.00;98383.00;;;;2059138;28;20250;-60
2023/11/06 01:01:05;;;;;;;4.00;2.10;;;;;22.00;98388.00;;;;2062862;28;20230;-60
2023/11/06 01:02:05;;;;;;;4.17;2.13;;;;;22.00;98389.00;;;;2058525;28;20301;-59
2023/11/06 01:03:05;;;;;;;3.73;1.77;;;;;22.00;98392.00;;;;2050881;28;20215;-56
2023/11/06 01:04:09;;;;;;;7.50;2.20;;;;;21.80;98396.00;;;;2067988;28;20226;-57
2023/11/06 01:05:09;;;;;;;4.90;2.45;;;;;21.90;98392.00;;;;2059732;28;20262;-59
2023/11/06 01:06:12;;;;;;;5.07;2.30;;;;;21.90;98401.00;;;;2062159;28;20218;-57
2023/11/06 01:07:13;;;;;;;3.28;2.08;;;;;21.90;98396.00;;;;2069530;28;20210;-59
2023/11/06 01:08:14;;;;;;;4.00;2.23;;;;;21.90;98451.00;;;;2052072;28;20266;-60
2023/11/06 01:09:16;;;;;;;5.47;1.90;;;;;21.90;98404.00;;;;2062266;28;21034;-59
2023/11/06 01:10:17;;;;;;;4.32;2.38;;;;;21.90;98404.00;;;;2083439;22;20215;-64
2023/11/06 01:11:18;;;;;;;4.22;1.98;;;;;21.90;98401.00;;;;2087116;28;20216;-64
2023/11/06 01:12:18;;;;;;;3.90;2.10;;;;;21.90;98404.00;;;;2071763;28;20221;-64
2023/11/06 01:13:19;;;;;;;3.40;1.87;;;;;21.90;98408.00;;;;2062305;28;20222;-64
2023/11/06 01:14:19;;;;;;;4.40;1.80;;;;;21.90;98408.00;;;;2079825;28;20240;-64
2023/11/06 01:15:21;;;;;;;3.43;1.77;;;;;21.90;98416.00;;;;2087474;28;20684;-64
2023/11/06 01:16:22;;;;;;;3.15;1.88;;;;;21.90;98418.00;;;;2088045;28;20225;-64
2023/11/06 01:17:25;;;;;;;6.00;1.83;;;;;21.90;98410.00;;;;2085230;28;20573;-64
2023/11/06 01:18:25;;;;;;;3.63;2.03;;;;;21.90;98407.00;;;;2088102;28;20600;-64
2023/11/06 01:19:26;;;;;;;3.73;1.73;;;;;21.90;98411.00;;;;2087364;28;20225;-64
2023/11/06 01:20:26;;;;;;;4.27;1.90;;;;;21.90;98414.00;;;;2090493;28;20232;-64
2023/11/06 01:21:26;;;;;;;3.07;1.53;;;;;21.90;98423.00;;;;2092910;28;20232;-64
2023/11/06 01:22:27;;;;;;;3.00;1.80;;;;;21.90;98417.00;;;;2087057;28;20223;-64
2023/11/06 01:23:28;;;;;;;2.57;1.67;;;;;21.90;98390.00;;;;2091833;28;20243;-64
2023/11/06 01:24:28;;;;;;;2.57;1.40;;;;;21.90;98420.00;;;;2090861;28;21207;-64
2023/11/06 01:25:28;;;;;;;2.80;2.07;;;;;21.90;98412.00;;;;2095349;28;20231;-64
2023/11/06 01:26:29;;;;;;;4.90;1.90;;;;;21.90;98418.00;;;;2089540;28;20213;-64
2023/11/06 01:27:29;;;;;;;4.80;2.13;;;;;21.90;98413.00;;;;2087307;28;20220;-64
2023/11/06 01:28:29;;;;;;;4.00;1.70;;;;;21.90;98419.00;;;;2091288;28;20217;-64
2023/11/06 01:29:30;;;;;;;3.37;1.37;;;;;21.90;98414.00;;;;2091070;28;20224;-64
2023/11/06 01:30:31;;;;;;;3.03;1.53;;;;;21.90;98422.00;;;;2094451;28;20297;-64
2023/11/06 01:31:31;;;;;;;3.03;1.58;;;;;21.90;98433.00;;;;2084105;28;20225;-64
2023/11/06 01:32:32;;;;;;;3.57;1.37;;;;;21.90;98427.00;;;;2083914;28;20209;-64
2023/11/06 01:33:32;;;;;;;2.43;1.40;;;;;21.90;98438.00;;;;2084758;28;20217;-64
2023/11/06 01:34:32;;;;;;;2.77;1.40;;;;;21.90;98431.00;;;;2091096;28;20213;-64
2023/11/06 01:35:33;;;;;;;2.70;1.23;;;;;21.80;98432.00;;;;2094334;28;20205;-64
2023/11/06 01:36:33;;;;;;;3.17;1.30;;;;;21.80;98435.00;;;;2096973;28;20251;-64
2023/11/06 01:37:33;;;;;;;3.90;1.37;;;;;21.80;98415.00;;;;2085809;28;20304;-64
2023/11/06 01:38:34;;;;;;;3.73;1.33;;;;;21.80;98423.00;;;;2088389;28;20301;-64
2023/11/06 01:39:34;;;;;;;3.17;1.47;;;;;21.80;98436.00;;;;2091416;28;20217;-64
2023/11/06 01:40:34;;;;;;;2.47;1.30;;;;;21.80;98430.00;;;;2092197;28;20213;-64
2023/11/06 01:41:35;;;;;;;4.30;1.33;;;;;21.80;98437.00;;;;2097133;28;20251;-64
2023/11/06 01:42:35;;;;;;;3.00;1.27;;;;;21.80;98444.00;;;;2083272;28;20201;-64
2023/11/06 01:43:35;;;;;;;3.47;1.53;;;;;21.80;98439.00;;;;2088820;28;20258;-64
2023/11/06 01:44:37;;;;;;;3.00;1.23;;;;;21.80;98438.00;;;;2091572;28;20236;-64
2023/11/06 01:45:39;;;;;;;3.95;1.40;;;;;21.80;98448.00;;;;2090734;28;20217;-64
2023/11/06 01:46:39;;;;;;;2.65;1.13;;;;;21.80;98406.00;;;;2097094;28;20283;-64
2023/11/06 01:47:39;;;;;;;2.60;1.40;;;;;21.80;98442.00;;;;2085233;28;20204;-64
2023/11/06 01:48:40;;;;;;;3.63;1.33;;;;;21.80;98450.00;;;;2101734;28;20243;-64
2023/11/06 01:49:40;;;;;;;3.50;1.40;;;;;21.80;98444.00;;;;2079409;28;20227;-64
2023/11/06 01:50:40;;;;;;;2.80;1.40;;;;;21.80;98447.00;;;;2082903;28;20264;-64
2023/11/06 01:51:41;;;;;;;3.00;1.30;;;;;21.80;98443.00;;;;2093560;28;20205;-64
2023/11/06 01:52:41;;;;;;;4.10;1.43;;;;;21.80;98442.00;;;;2088695;28;21841;-65
2023/11/06 01:53:42;;;;;;;4.43;1.60;;;;;21.80;98446.00;;;;2093173;28;20201;-64
2023/11/06 01:54:42;;;;;;;4.30;1.60;;;;;21.80;98448.00;;;;2078651;28;20220;-64
2023/11/06 01:55:43;;;;;;;2.70;0.97;;;;;21.70;98457.00;;;;2091542;28;20292;-64
2023/11/06 01:56:44;;;;;;;4.63;1.20;;;;;21.80;98453.00;;;;2091866;28;20212;-64
2023/11/06 01:57:44;;;;;;;5.63;1.20;;;;;21.70;98454.00;;;;2082351;28;20244;-64
2023/11/06 01:58:44;;;;;;;3.57;1.30;;;;;21.70;98461.00;;;;2093387;28;20287;-64
2023/11/06 01:59:45;;;;;;;2.80;1.13;;;;;21.80;98423.00;;;;2088647;28;20204;-64
2023/11/06 02:00:45;;;;;;;3.60;1.10;;;;;21.80;98457.00;;;;2087994;28;20208;-64
2023/11/06 02:01:46;;;;;;;3.20;1.27;;;;;21.70;98463.00;;;;2073545;28;20217;-64
2023/11/06 02:02:46;;;;;;;2.60;1.10;;;;;21.70;98455.00;;;;2073638;28;20232;-64
2023/11/06 02:03:47;;;;;;;3.30;1.07;;;;;21.70;98441.00;;;;2081284;28;20748;-64
2023/11/06 02:04:49;;;;;;;2.70;1.10;;;;;21.70;98448.00;;;;2079615;28;20201;-64
2023/11/06 02:05:49;;;;;;;6.25;1.20;;;;;21.70;98458.00;;;;2075703;28;20225;-64
2023/11/06 02:06:50;;;;;;;4.03;1.20;;;;;21.70;98462.00;;;;2071341;28;20213;-64
2023/11/06 02:07:50;;;;;;;2.80;1.10;;;;;21.70;98476.00;;;;2074896;28;20225;-64
2023/11/06 02:08:50;;;;;;;2.90;1.13;;;;;21.70;98466.00;;;;2082797;28;20221;-64
2023/11/06 02:09:51;;;;;;;8.07;1.60;;;;;21.70;98468.00;;;;2086685;28;21179;-64
2023/11/06 02:10:51;;;;;;;3.77;1.13;;;;;21.70;98467.00;;;;2094450;28;20227;-64
2023/11/06 02:11:51;;;;;;;1.63;0.83;;;;;21.70;98468.00;;;;2093022;28;20250;-67
2023/11/06 02:12:52;;;;;;;3.10;1.10;;;;;21.70;98468.00;;;;2086832;28;20226;-67
2023/11/06 02:13:52;;;;;;;4.33;1.00;;;;;21.70;98470.00;;;;2089541;28;20217;-67
2023/11/06 02:14:53;;;;;;;2.70;0.90;;;;;21.70;98461.00;;;;2093248;28;20295;-67
2023/11/06 02:15:54;;;;;;;2.78;1.13;;;;;21.70;98469.00;;;;2080430;28;20221;-67
2023/11/06 02:16:55;;;;;;;2.37;1.10;;;;;21.70;98471.00;;;;2081077;28;20653;-67
2023/11/06 02:17:56;;;;;;;4.68;1.02;;;;;21.70;98470.00;;;;2083515;28;20224;-67
2023/11/06 02:18:56;;;;;;;2.90;1.20;;;;;21.70;98473.00;;;;2088294;28;20273;-67
2023/11/06 02:19:58;;;;;;;2.63;1.00;;;;;21.70;98470.00;;;;2093705;28;20224;-67
2023/11/06 02:20:59;;;;;;;1.95;0.65;;;;;21.60;98467.00;;;;2090478;28;20216;-67
2023/11/06 02:21:59;;;;;;;3.60;0.80;;;;;21.70;98480.00;;;;2084983;28;20224;-67
2023/11/06 02:23:01;;;;;;;2.73;0.93;;;;;21.70;98477.00;;;;2074023;28;20433;-67
2023/11/06 02:24:02;;;;;;;1.92;1.00;;;;;21.70;98471.00;;;;2087870;28;20243;-67
2023/11/06 02:25:03;;;;;;;3.35;1.05;;;;;21.70;98474.00;;;;2083895;28;20221;-65
2023/11/06 02:26:05;;;;;;;2.80;1.10;;;;;21.70;98471.00;;;;2069753;28;20737;-65
2023/11/06 02:27:08;;;;;;;5.93;1.30;;;;;21.70;98478.00;;;;2077559;28;20209;-65
2023/11/06 02:28:08;;;;;;;2.15;0.98;;;;;21.70;98478.00;;;;2071180;28;20233;-65
2023/11/06 02:29:08;;;;;;;2.43;0.90;;;;;21.70;98476.00;;;;2087750;28;20213;-65
2023/11/06 02:30:09;;;;;;;3.17;1.00;;;;;21.70;98473.00;;;;2089677;28;20204;-65
2023/11/06 02:31:09;;;;;;;2.10;0.80;;;;;21.60;98444.00;;;;2094563;28;20239;-65
2023/11/06 02:32:10;;;;;;;3.00;1.20;;;;;21.70;98486.00;;;;2089272;28;20217;-65
2023/11/06 02:33:10;;;;;;;3.13;1.07;;;;;21.70;98477.00;;;;2084443;28;20227;-65
2023/11/06 02:34:10;;;;;;;3.00;1.23;;;;;21.70;98489.00;;;;2089417;28;20215;-65
2023/11/06 02:35:11;;;;;;;5.50;2.00;;;;;21.60;98453.00;;;;2088649;28;20209;-65
2023/11/06 02:36:11;;;;;;;6.30;4.63;;;;;21.60;98492.00;;;;2095480;28;20542;-65
2023/11/06 02:37:11;;;;;;;9.80;7.70;;;;;21.60;98485.00;;;;2092390;28;20204;-65
2023/11/06 02:38:12;;;;;;;12.83;10.90;;;;;21.60;98492.00;;;;2085603;28;20212;-65
2023/11/06 02:39:12;;;;;;;20.87;14.53;;;;;21.60;98481.00;;;;2089436;28;20684;-65
2023/11/06 02:40:13;;;;;;;24.10;17.57;;;;;21.60;98487.00;;;;2080764;28;20301;-65
2023/11/06 02:41:13;;;;;;;29.43;21.93;;;;;21.60;98491.00;;;;2102086;28;20223;-65
2023/11/06 02:42:13;;;;;;;33.37;24.67;;;;;21.60;98496.00;;;;2096581;28;20281;-65
2023/11/06 02:43:14;;;;;;;44.37;31.80;;;;;21.60;98501.00;;;;2083392;28;20658;-65
2023/11/06 02:44:14;;;;;;;45.50;33.97;;;;;21.60;98495.00;;;;2088006;28;20200;-65
2023/11/06 02:45:14;;;;;;;57.67;38.63;;;;;21.60;98496.00;;;;2094722;28;20208;-65
2023/11/06 02:46:15;;;;;;;61.90;42.27;;;;;21.60;98495.00;;;;2095921;28;20205;-65
2023/11/06 02:47:15;;;;;;;59.00;41.93;;;;;21.60;98498.00;;;;2087626;28;20212;-65
2023/11/06 02:48:15;;;;;;;58.40;41.60;;;;;21.60;98497.00;;;;2085777;28;20221;-65
2023/11/06 02:49:16;;;;;;;63.37;44.50;;;;;21.60;98511.00;;;;2088187;28;20224;-65
2023/11/06 02:50:16;;;;;;;64.47;44.63;;;;;21.60;98501.00;;;;2094965;28;20240;-65
2023/11/06 02:51:16;;;;;;;63.87;46.07;;;;;21.60;98506.00;;;;2092485;28;20266;-65
2023/11/06 02:52:17;;;;;;;73.77;48.60;;;;;21.60;98510.00;;;;2094684;28;20213;-65
2023/11/06 02:53:17;;;;;;;71.40;48.00;;;;;21.60;98521.00;;;;2076990;28;20216;-68
2023/11/06 02:54:22;;;;;;;74.37;48.50;;;;;21.60;98498.00;;;;2078773;28;20213;-68
2023/11/06 02:55:22;;;;;;;72.03;48.63;;;;;21.60;98515.00;;;;2079146;28;20244;-68
2023/11/06 02:56:23;;;;;;;75.47;45.93;;;;;21.60;98522.00;;;;2086704;28;20244;-68
2023/11/06 02:57:23;;;;;;;62.63;41.90;;;;;21.70;98517.00;;;;2089718;28;20238;-67
2023/11/06 02:58:24;;;;;;;52.57;36.67;;;;;21.70;98477.00;;;;2084651;28;20723;-67
2023/11/06 02:59:24;;;;;;;51.03;35.50;;;;;21.80;98519.00;;;;2079349;28;20684;-67
2023/11/06 03:00:24;;;;;;;51.50;34.10;;;;;21.80;98527.00;;;;2087349;28;20228;-67
2023/11/06 03:01:25;;;;;;;51.83;35.50;;;;;21.80;98529.00;;;;2089347;28;20213;-68
2023/11/06 03:02:25;;;;;;;48.03;31.80;;;;;21.80;98529.00;;;;2086476;28;20285;-68
2023/11/06 03:03:27;;;;;;;56.33;36.53;;;;;21.80;98519.00;;;;2089103;28;20605;-68
2023/11/06 03:04:27;;;;;;;51.13;34.33;;;;;21.80;98542.00;;;;2088007;28;20217;-67
2023/11/06 03:05:28;;;;;;;53.13;35.30;;;;;21.80;98544.00;;;;2087748;28;21049;-67
2023/11/06 03:06:28;;;;;;;52.00;34.90;;;;;21.80;98540.00;;;;2084123;28;20220;-67
2023/11/06 03:07:31;;;;;;;48.53;33.90;;;;;21.80;98543.00;;;;2085337;28;20220;-67
2023/11/06 03:08:32;;;;;;;55.63;33.33;;;;;21.80;98543.00;;;;2087611;28;20226;-67
2023/11/06 03:09:32;;;;;;;47.17;33.47;;;;;21.80;98542.00;;;;2088718;28;20217;-67
2023/11/06 03:10:32;;;;;;;48.87;33.73;;;;;21.80;98544.00;;;;2088911;28;20244;-67
2023/11/06 03:11:33;;;;;;;46.07;31.77;;;;;21.80;98548.00;;;;2097565;28;20222;-67
2023/11/06 03:12:33;;;;;;;44.90;29.77;;;;;21.80;98556.00;;;;2087298;28;20208;-67
2023/11/06 03:13:33;;;;;;;49.50;29.87;;;;;21.80;98554.00;;;;2082940;28;20212;-67
2023/11/06 03:14:35;;;;;;;49.23;30.47;;;;;21.80;98550.00;;;;2089140;28;20724;-67
2023/11/06 03:15:36;;;;;;;39.00;28.23;;;;;21.80;98556.00;;;;2091902;28;20209;-67
2023/11/06 03:16:38;;;;;;;38.53;29.00;;;;;21.80;98561.00;;;;2096510;28;20204;-67
2023/11/06 03:17:38;;;;;;;41.33;29.38;;;;;21.80;98559.00;;;;2085020;28;20216;-66
2023/11/06 03:18:40;;;;;;;40.97;28.23;;;;;21.80;98557.00;;;;2088058;28;20245;-66
2023/11/06 03:19:40;;;;;;;37.60;26.50;;;;;21.80;98570.00;;;;2089966;28;20212;-66
2023/11/06 03:20:41;;;;;;;33.70;24.43;;;;;21.80;98565.00;;;;2087311;28;20229;-66
2023/11/06 03:21:41;;;;;;;38.73;26.03;;;;;21.80;98568.00;;;;2095689;28;20713;-66
2023/11/06 03:22:41;;;;;;;34.13;24.97;;;;;21.80;98566.00;;;;2083436;28;20208;-66
2023/11/06 03:23:42;;;;;;;37.40;25.00;;;;;21.80;98578.00;;;;2093914;28;20255;-66
2023/11/06 03:24:42;;;;;;;35.90;24.50;;;;;21.80;98577.00;;;;2087775;28;20216;-66
2023/11/06 03:25:42;;;;;;;35.03;24.00;;;;;21.80;98573.00;;;;2089205;28;20213;-66
2023/11/06 03:26:43;;;;;;;37.23;24.97;;;;;21.80;98576.00;;;;2095418;28;20218;-66
2023/11/06 03:27:43;;;;;;;34.80;23.10;;;;;21.80;98576.00;;;;2078108;28;20206;-66
2023/11/06 03:28:43;;;;;;;30.97;23.30;;;;;21.80;98574.00;;;;2093854;28;20215;-66
2023/11/06 03:29:44;;;;;;;33.30;23.10;;;;;21.80;98589.00;;;;2087221;28;20269;-66
2023/11/06 03:30:44;;;;;;;29.20;22.70;;;;;21.80;98578.00;;;;2090633;28;20209;-66
2023/11/06 03:31:44;;;;;;;34.23;24.33;;;;;21.80;98586.00;;;;2094844;28;20208;-66
2023/11/06 03:32:46;;;;;;;36.90;24.50;;;;;21.80;98581.00;;;;2083003;28;20238;-66
2023/11/06 03:33:46;;;;;;;37.00;26.70;;;;;21.80;98590.00;;;;2093472;28;20219;-66
2023/11/06 03:34:46;;;;;;;33.97;24.83;;;;;21.70;98588.00;;;;2088255;28;20696;-66
2023/11/06 03:35:47;;;;;;;36.03;26.10;;;;;21.70;98589.00;;;;2093573;28;20815;-66
2023/11/06 03:36:47;;;;;;;35.53;26.70;;;;;21.70;98594.00;;;;2088242;28;20200;-66
2023/11/06 03:37:48;;;;;;;36.57;26.80;;;;;21.70;98591.00;;;;2082820;28;20220;-66
2023/11/06 03:38:49;;;;;;;39.27;28.80;;;;;21.80;98602.00;;;;2094697;28;20211;-66
2023/11/06 03:39:49;;;;;;;38.97;28.55;;;;;21.80;98587.00;;;;2091751;28;20212;-66
2023/11/06 03:40:49;;;;;;;41.60;30.40;;;;;21.80;98554.00;;;;2097152;28;20725;-66
2023/11/06 03:41:50;;;;;;;36.60;27.53;;;;;21.70;98595.00;;;;2091595;28;20671;-66
2023/11/06 03:42:51;;;;;;;39.67;28.67;;;;;21.70;98593.00;;;;2082989;28;20219;-66
2023/11/06 03:43:51;;;;;;;42.53;30.37;;;;;21.70;98592.00;;;;2093618;28;20200;-66
2023/11/06 03:44:52;;;;;;;40.70;28.70;;;;;21.80;98608.00;;;;2093044;28;20450;-66
2023/11/06 03:45:52;;;;;;;41.50;29.70;;;;;21.70;98600.00;;;;2097092;28;20250;-66
2023/11/06 03:46:53;;;;;;;43.87;30.17;;;;;21.80;98566.00;;;;2092568;28;20235;-66
2023/11/06 03:47:53;;;;;;;42.77;29.77;;;;;21.70;98602.00;;;;2086929;28;20216;-66
2023/11/06 03:48:54;;;;;;;39.67;28.57;;;;;21.70;98602.00;;;;2082726;28;20225;-66
2023/11/06 03:49:54;;;;;;;44.87;30.80;;;;;21.70;98614.00;;;;2088804;28;20291;-66
2023/11/06 03:50:55;;;;;;;44.57;30.80;;;;;21.70;98600.00;;;;2091736;28;20265;-66
2023/11/06 03:51:55;;;;;;;41.77;31.97;;;;;21.70;98617.00;;;;2088699;28;20228;-66
2023/11/06 03:52:55;;;;;;;42.67;30.57;;;;;21.70;98618.00;;;;2083798;28;20220;-66
2023/11/06 03:53:56;;;;;;;39.57;29.10;;;;;21.70;98622.00;;;;2087934;28;20220;-66
2023/11/06 03:54:56;;;;;;;44.40;30.30;;;;;21.70;98629.00;;;;2093371;28;20223;-66
2023/11/06 03:55:56;;;;;;;43.70;29.97;;;;;21.70;98626.00;;;;2093246;28;20784;-66
2023/11/06 03:56:57;;;;;;;43.70;30.70;;;;;21.70;98636.00;;;;2093252;28;20281;-66
2023/11/06 03:57:57;;;;;;;38.83;28.50;;;;;21.70;98636.00;;;;2087601;28;20228;-66
2023/11/06 03:58:57;;;;;;;41.00;29.63;;;;;21.70;98631.00;;;;2088550;28;20255;-66
2023/11/06 03:59:58;;;;;;;45.47;30.93;;;;;21.70;98623.00;;;;2093463;28;20212;-66
2023/11/06 04:00:58;;;;;;;41.43;28.80;;;;;21.70;98639.00;;;;2092126;28;20246;-66
2023/11/06 04:01:59;;;;;;;42.67;30.70;;;;;21.70;98632.00;;;;2093687;28;20239;-66
2023/11/06 04:02:59;;;;;;;43.80;29.57;;;;;21.70;98637.00;;;;2084241;28;20243;-66
2023/11/06 04:04:00;;;;;;;42.87;31.00;;;;;21.70;98623.00;;;;2089591;28;20228;-66
2023/11/06 04:05:01;;;;;;;46.67;29.83;;;;;21.70;98648.00;;;;2089460;28;20217;-66
2023/11/06 04:06:02;;;;;;;44.07;29.20;;;;;21.70;98645.00;;;;2092861;28;20224;-66
2023/11/06 04:07:04;;;;;;;39.03;29.55;;;;;21.70;98639.00;;;;2097447;28;20538;-66
2023/11/06 04:08:04;;;;;;;41.38;29.92;;;;;21.70;98649.00;;;;2080083;28;20217;-66
2023/11/06 04:09:07;;;;;;;39.83;28.60;;;;;21.70;98642.00;;;;2080322;28;20225;-66
2023/11/06 04:10:10;;;;;;;40.08;29.30;;;;;21.70;98638.00;;;;2089461;28;20221;-66
2023/11/06 04:11:11;;;;;;;41.33;27.98;;;;;21.70;98654.00;;;;2094936;28;20212;-67
2023/11/06 04:12:11;;;;;;;41.40;28.60;;;;;21.70;98648.00;;;;2082117;28;20260;-67
2023/11/06 04:13:12;;;;;;;43.07;28.63;;;;;21.70;98613.00;;;;2066674;28;20460;-67
2023/11/06 04:14:12;;;;;;;36.27;25.57;;;;;21.70;98657.00;;;;2091147;28;20205;-67
2023/11/06 04:15:13;;;;;;;34.70;26.70;;;;;21.70;98653.00;;;;2092872;28;20965;-67
2023/11/06 04:16:14;;;;;;;36.97;25.30;;;;;21.70;98667.00;;;;2094656;28;20611;-67
2023/11/06 04:17:14;;;;;;;40.83;25.33;;;;;21.70;98653.00;;;;2092229;28;20208;-67
2023/11/06 04:18:14;;;;;;;37.77;26.03;;;;;21.70;98660.00;;;;2085435;28;20470;-67
2023/11/06 04:19:15;;;;;;;36.80;25.67;;;;;21.70;98664.00;;;;2091365;28;20236;-67
2023/11/06 04:20:15;;;;;;;36.33;24.00;;;;;21.70;98651.00;;;;2088542;28;20216;-67
2023/11/06 04:21:18;;;;;;;35.20;23.27;;;;;21.70;98652.00;;;;2095520;28;20223;-67
2023/11/06 04:22:19;;;;;;;32.35;23.05;;;;;21.60;98650.00;;;;2091599;28;20208;-67
2023/11/06 04:23:20;;;;;;;32.38;21.00;;;;;21.60;98661.00;;;;2079219;28;20228;-67
2023/11/06 04:24:20;;;;;;;29.83;22.30;;;;;21.60;98665.00;;;;2088588;28;20719;-67
2023/11/06 04:25:20;;;;;;;33.43;21.43;;;;;21.70;98659.00;;;;2095114;28;20298;-67
2023/11/06 04:26:21;;;;;;;29.47;21.17;;;;;21.70;98664.00;;;;2096793;28;20200;-67
2023/11/06 04:27:21;;;;;;;30.40;20.87;;;;;21.70;98660.00;;;;2083772;28;20214;-67
2023/11/06 04:28:21;;;;;;;29.03;20.97;;;;;21.70;98670.00;;;;2078321;28;20243;-67
2023/11/06 04:29:22;;;;;;;25.67;19.53;;;;;21.70;98661.00;;;;2085684;28;20511;-67
2023/11/06 04:30:23;;;;;;;31.27;19.47;;;;;21.70;98664.00;;;;2095165;28;20213;-67
2023/11/06 04:31:23;;;;;;;26.83;18.55;;;;;21.70;98687.00;;;;2095142;28;20216;-67
2023/11/06 04:32:24;;;;;;;27.37;19.83;;;;;21.70;98670.00;;;;2086579;28;20633;-67
2023/11/06 04:33:24;;;;;;;27.47;19.93;;;;;21.70;98660.00;;;;2094896;28;20602;-67
2023/11/06 04:34:24;;;;;;;25.23;18.87;;;;;21.60;98668.00;;;;2072186;28;20644;-67
2023/11/06 04:35:26;;;;;;;26.20;17.50;;;;;21.60;98668.00;;;;2080107;28;20557;-67
2023/11/06 04:36:26;;;;;;;26.17;18.40;;;;;21.70;98672.00;;;;2087918;28;20288;-67
2023/11/06 04:37:27;;;;;;;25.83;17.27;;;;;21.60;98668.00;;;;2079200;28;20565;-67
2023/11/06 04:38:27;;;;;;;20.43;16.30;;;;;21.60;98679.00;;;;2096262;28;20224;-67
2023/11/06 04:39:27;;;;;;;22.67;16.07;;;;;21.60;98643.00;;;;2087948;28;20223;-67
2023/11/06 04:40:28;;;;;;;21.67;16.67;;;;;21.60;98684.00;;;;2093835;28;20216;-67
2023/11/06 04:41:28;;;;;;;22.10;15.33;;;;;21.60;98688.00;;;;2084078;28;20220;-67
2023/11/06 04:42:28;;;;;;;21.97;15.70;;;;;21.60;98683.00;;;;2078687;28;20213;-67
2023/11/06 04:43:29;;;;;;;22.30;15.73;;;;;21.60;98687.00;;;;2079730;28;20215;-67
2023/11/06 04:44:29;;;;;;;22.53;15.50;;;;;21.60;98663.00;;;;2096461;28;20224;-67
2023/11/06 04:45:29;;;;;;;21.40;15.63;;;;;21.60;98684.00;;;;2100106;28;20270;-67
2023/11/06 04:46:30;;;;;;;21.63;16.30;;;;;21.60;98685.00;;;;2088487;28;20217;-67
2023/11/06 04:47:30;;;;;;;23.40;14.50;;;;;21.60;98638.00;;;;2079233;28;20282;-67
2023/11/06 04:48:31;;;;;;;19.17;14.70;;;;;21.60;98682.00;;;;2090986;28;20244;-67
2023/11/06 04:49:32;;;;;;;20.45;15.32;;;;;21.60;98688.00;;;;2089251;28;20217;-67
2023/11/06 04:50:32;;;;;;;18.83;13.83;;;;;21.60;98692.00;;;;2093795;28;20219;-67
2023/11/06 04:51:32;;;;;;;20.23;13.73;;;;;21.60;98688.00;;;;2088983;28;20217;-67
2023/11/06 04:52:33;;;;;;;21.10;13.53;;;;;21.60;98697.00;;;;2094583;28;20242;-67
2023/11/06 04:53:33;;;;;;;18.60;13.60;;;;;21.60;98701.00;;;;2097695;28;20299;-67
2023/11/06 04:54:33;;;;;;;21.50;14.27;;;;;21.60;98694.00;;;;2088417;28;20212;-67
2023/11/06 04:55:34;;;;;;;20.23;14.20;;;;;21.60;98687.00;;;;2082798;28;20763;-66
2023/11/06 04:56:34;;;;;;;18.83;13.53;;;;;21.60;98691.00;;;;2097167;28;20223;-66
2023/11/06 04:57:34;;;;;;;15.63;12.93;;;;;21.60;98696.00;;;;2077151;28;20225;-66
2023/11/06 04:58:35;;;;;;;16.60;12.60;;;;;21.60;98696.00;;;;2080200;28;20224;-66
2023/11/06 04:59:37;;;;;;;18.20;12.33;;;;;21.60;98695.00;;;;2087708;28;20205;-66